createdAt,value
2019-05-10T00:00:10.802Z,8.70
2019-05-10T00:02:57.923Z,8.60
2019-05-10T00:05:45.422Z,8.60
2019-05-10T00:08:32.202Z,8.70
2019-05-10T00:11:18.908Z,8.70
2019-05-10T00:13:52.816Z,8.70
2019-05-10T00:16:22.043Z,8.70
2019-05-10T00:18:50.922Z,8.80
2019-05-10T00:21:19.877Z,8.80
2019-05-10T00:23:48.745Z,8.80
2019-05-10T00:26:18.229Z,8.80
2019-05-10T00:28:47.106Z,8.80
2019-05-10T00:31:16.001Z,8.80
2019-05-10T00:33:44.872Z,8.80
2019-05-10T00:36:14.033Z,8.80
2019-05-10T00:38:43.166Z,8.80
2019-05-10T00:41:11.969Z,8.80
2019-05-10T00:43:40.768Z,8.80
2019-05-10T00:46:10.048Z,8.80
2019-05-10T00:48:39.231Z,8.70
2019-05-10T00:51:08.385Z,8.70
2019-05-10T00:53:37.178Z,8.70
2019-05-10T00:56:06.052Z,8.70
2019-05-10T00:58:34.862Z,8.70
2019-05-10T01:01:03.839Z,8.70
2019-05-10T01:03:32.629Z,8.70
2019-05-10T01:06:01.813Z,8.70
2019-05-10T01:08:30.690Z,8.70
2019-05-10T01:10:59.502Z,8.80
2019-05-10T01:13:28.995Z,8.80
2019-05-10T01:15:57.807Z,8.80
2019-05-10T01:18:26.681Z,8.80
2019-05-10T01:20:55.645Z,8.70
2019-05-10T01:23:24.462Z,8.70
2019-05-10T01:25:53.470Z,8.60
2019-05-10T01:28:22.258Z,8.60
2019-05-10T01:30:51.371Z,8.60
2019-05-10T01:33:20.174Z,8.60
2019-05-10T01:35:49.029Z,8.60
2019-05-10T01:38:17.897Z,8.60
2019-05-10T01:40:46.710Z,8.70
2019-05-10T01:43:15.655Z,8.70
2019-05-10T01:45:44.464Z,8.70
2019-05-10T01:48:13.400Z,8.70
2019-05-10T01:50:42.504Z,8.70
2019-05-10T01:53:11.392Z,8.70
2019-05-10T01:55:51.555Z,8.70
2019-05-10T01:58:10.700Z,8.80
2019-05-10T02:00:39.878Z,8.80
2019-05-10T02:03:08.691Z,8.90
2019-05-10T02:05:37.493Z,9.00
2019-05-10T02:08:06.387Z,9.00
2019-05-10T02:10:35.326Z,9.10
2019-05-10T02:13:04.222Z,9.10
2019-05-10T02:15:33.115Z,9.10
2019-05-10T02:18:01.917Z,9.10
2019-05-10T02:20:30.705Z,9.10
2019-05-10T02:22:59.814Z,9.10
2019-05-10T02:25:28.682Z,9.10
2019-05-10T02:27:57.488Z,9.00
2019-05-10T02:30:26.408Z,9.00
2019-05-10T02:32:55.305Z,9.00
2019-05-10T02:35:24.169Z,9.00
2019-05-10T02:37:53.261Z,9.00
2019-05-10T02:40:22.243Z,9.00
2019-05-10T02:42:51.357Z,9.00
2019-05-10T02:45:20.697Z,9.00
2019-05-10T02:47:49.931Z,9.00
2019-05-10T02:50:18.860Z,9.00
2019-05-10T02:52:48.096Z,9.00
2019-05-10T02:55:16.962Z,9.00
2019-05-10T02:57:46.960Z,9.00
2019-05-10T03:00:16.714Z,9.00
2019-05-10T03:02:46.318Z,9.00
2019-05-10T03:05:15.258Z,9.00
2019-05-10T03:07:47.082Z,9.00
2019-05-10T03:10:16.786Z,9.00
2019-05-10T03:12:47.209Z,9.00
2019-05-10T03:15:16.149Z,9.00
2019-05-10T03:17:45.830Z,9.00
2019-05-10T03:20:14.793Z,8.90
2019-05-10T03:22:44.419Z,8.90
2019-05-10T03:25:14.369Z,8.90
2019-05-10T03:27:43.833Z,8.80
2019-05-10T03:30:13.173Z,8.80
2019-05-10T03:32:42.087Z,8.80
2019-05-10T03:35:11.201Z,8.70
2019-05-10T03:37:40.516Z,8.60
2019-05-10T03:40:10.257Z,8.60
2019-05-10T03:42:39.183Z,8.50
2019-05-10T03:45:09.239Z,8.50
2019-05-10T03:47:38.104Z,8.50
2019-05-10T03:50:07.160Z,8.50
2019-05-10T03:52:36.121Z,8.50
2019-05-10T03:55:05.311Z,8.50
2019-05-10T03:57:34.144Z,8.60
2019-05-10T04:00:03.039Z,8.60
2019-05-10T04:02:31.835Z,8.60
2019-05-10T04:05:00.649Z,8.70
2019-05-10T04:07:29.582Z,8.70
2019-05-10T04:09:58.497Z,8.70
2019-05-10T04:12:27.363Z,8.70
2019-05-10T04:14:56.518Z,8.70
2019-05-10T04:17:25.319Z,8.80
2019-05-10T04:19:54.108Z,8.80
2019-05-10T04:22:23.164Z,8.80
2019-05-10T04:24:51.965Z,8.70
2019-05-10T04:27:31.281Z,8.70
2019-05-10T04:29:51.765Z,8.70
2019-05-10T04:32:20.614Z,8.70
2019-05-10T04:34:49.432Z,8.80
2019-05-10T04:37:18.614Z,8.80
2019-05-10T04:39:47.612Z,8.90
2019-05-10T04:42:16.824Z,8.90
2019-05-10T04:44:46.148Z,9.00
2019-05-10T04:47:15.002Z,9.10
2019-05-10T04:49:43.946Z,9.10
2019-05-10T04:52:12.751Z,9.10
2019-05-10T04:54:41.939Z,9.20
2019-05-10T04:57:10.749Z,9.20
2019-05-10T04:59:39.797Z,9.30
2019-05-10T05:02:08.590Z,9.40
2019-05-10T05:04:37.380Z,9.50
2019-05-10T05:07:06.514Z,9.60
2019-05-10T05:09:35.425Z,9.60
2019-05-10T05:12:04.322Z,9.60
2019-05-10T05:14:33.432Z,9.60
2019-05-10T05:17:02.308Z,9.50
2019-05-10T05:19:31.209Z,9.50
2019-05-10T05:22:00.176Z,9.50
2019-05-10T05:24:28.962Z,9.60
2019-05-10T05:26:57.810Z,9.80
2019-05-10T05:29:26.788Z,10.00
2019-05-10T05:32:01.037Z,10.10
2019-05-10T05:34:26.236Z,10.20
2019-05-10T05:36:55.374Z,10.20
2019-05-10T05:39:24.256Z,10.30
2019-05-10T05:41:56.713Z,10.50
2019-05-10T05:44:26.271Z,10.80
2019-05-10T05:46:54.845Z,11.10
2019-05-10T05:49:23.640Z,11.30
2019-05-10T05:51:52.513Z,11.50
2019-05-10T05:54:22.695Z,11.50
2019-05-10T05:56:53.050Z,11.60
2019-05-10T05:59:25.947Z,11.60
2019-05-10T06:01:52.953Z,11.60
2019-05-10T06:04:21.751Z,11.60
2019-05-10T06:06:53.700Z,11.60
2019-05-10T06:09:21.541Z,11.60
2019-05-10T06:11:50.695Z,11.50
2019-05-10T06:14:19.528Z,11.40
2019-05-10T06:16:51.141Z,11.50
2019-05-10T06:19:20.464Z,11.50
2019-05-10T06:21:49.570Z,11.60
2019-05-10T06:24:18.365Z,11.90
2019-05-10T06:26:47.268Z,12.10
2019-05-10T06:29:18.183Z,12.20
2019-05-10T06:31:46.702Z,12.40
2019-05-10T06:34:15.642Z,12.60
2019-05-10T06:36:44.542Z,12.80
2019-05-10T06:39:13.349Z,13.00
2019-05-10T06:41:42.610Z,13.20
2019-05-10T06:44:11.476Z,13.40
2019-05-10T06:46:40.364Z,13.40
2019-05-10T06:49:10.883Z,13.50
2019-05-10T06:51:42.735Z,13.40
2019-05-10T06:54:10.489Z,13.40
2019-05-10T06:56:39.373Z,13.30
2019-05-10T06:59:13.416Z,13.30
2019-05-10T07:01:45.870Z,13.20
2019-05-10T07:04:10.181Z,13.20
2019-05-10T07:06:38.985Z,13.20
2019-05-10T07:09:07.850Z,13.30
2019-05-10T07:11:36.918Z,13.40
2019-05-10T07:14:06.199Z,13.60
2019-05-10T07:16:35.257Z,13.70
2019-05-10T07:19:04.447Z,13.80
2019-05-10T07:21:33.286Z,13.90
2019-05-10T07:24:02.093Z,14.00
2019-05-10T07:26:30.904Z,14.30
2019-05-10T07:29:00.092Z,14.80
2019-05-10T07:31:28.872Z,15.40
2019-05-10T07:33:57.683Z,15.50
2019-05-10T07:36:29.725Z,15.60
2019-05-10T07:38:57.509Z,15.40
2019-05-10T07:41:28.962Z,15.30
2019-05-10T07:44:00.870Z,15.20
2019-05-10T07:46:27.935Z,15.10
2019-05-10T07:48:56.852Z,14.90
2019-05-10T07:51:28.697Z,14.90
2019-05-10T07:53:57.066Z,14.90
2019-05-10T07:56:26.844Z,14.90
2019-05-10T07:58:55.662Z,15.10
2019-05-10T08:01:32.525Z,15.20
2019-05-10T08:03:55.073Z,15.40
2019-05-10T08:06:24.340Z,15.60
2019-05-10T08:08:55.283Z,15.80
2019-05-10T08:11:23.658Z,16.00
2019-05-10T08:13:52.473Z,16.00
2019-05-10T08:16:22.860Z,15.90
2019-05-10T08:18:55.776Z,15.70
2019-05-10T08:21:26.278Z,15.80
2019-05-10T08:23:54.119Z,16.40
2019-05-10T08:26:24.810Z,17.10
2019-05-10T08:28:53.639Z,17.80
2019-05-10T08:31:25.732Z,18.70
2019-05-10T08:33:58.554Z,19.50
2019-05-10T08:36:24.262Z,19.90
2019-05-10T08:39:05.011Z,20.20
2019-05-10T08:41:23.680Z,20.20
2019-05-10T08:43:52.664Z,19.80
2019-05-10T08:46:28.596Z,19.60
2019-05-10T08:48:53.982Z,19.30
2019-05-10T08:51:23.250Z,19.00
2019-05-10T08:53:57.843Z,18.50
2019-05-10T08:56:24.112Z,18.30
2019-05-10T08:58:59.263Z,18.10
2019-05-10T09:01:30.655Z,18.00
2019-05-10T09:04:00.785Z,18.00
2019-05-10T09:06:29.956Z,18.00
2019-05-10T09:09:05.904Z,18.20
2019-05-10T09:11:29.721Z,18.40
2019-05-10T09:13:58.675Z,18.80
2019-05-10T09:16:29.112Z,19.10
2019-05-10T09:18:58.539Z,19.10
2019-05-10T09:21:27.426Z,18.70
2019-05-10T09:24:01.760Z,18.50
2019-05-10T09:26:27.207Z,18.40
2019-05-10T09:28:57.772Z,18.30
2019-05-10T09:31:26.838Z,18.00
2019-05-10T09:33:56.309Z,17.90
2019-05-10T09:36:31.163Z,18.10
2019-05-10T09:38:56.285Z,18.40
2019-05-10T09:41:27.657Z,18.90
2019-05-10T09:43:55.847Z,19.70
2019-05-10T09:46:24.710Z,20.10
2019-05-10T09:48:54.680Z,19.80
2019-05-10T09:51:28.687Z,19.70
2019-05-10T09:53:57.640Z,19.40
2019-05-10T09:56:27.611Z,19.20
2019-05-10T09:58:58.196Z,18.90
2019-05-10T10:01:28.207Z,18.70
2019-05-10T10:03:58.364Z,18.60
2019-05-10T10:06:29.786Z,18.50
2019-05-10T10:09:01.017Z,18.30
2019-05-10T10:11:29.314Z,17.90
2019-05-10T10:14:01.848Z,17.60
2019-05-10T10:16:29.170Z,17.90
2019-05-10T10:18:58.250Z,18.40
2019-05-10T10:21:34.722Z,18.90
2019-05-10T10:24:00.341Z,19.30
2019-05-10T10:26:28.792Z,19.40
2019-05-10T10:29:00.177Z,19.30
2019-05-10T10:31:33.045Z,19.20
2019-05-10T10:34:02.631Z,19.00
2019-05-10T10:36:29.280Z,18.80
2019-05-10T10:38:59.641Z,18.70
2019-05-10T10:41:31.732Z,18.50
2019-05-10T10:43:59.441Z,18.60
2019-05-10T10:46:28.316Z,18.70
2019-05-10T10:48:57.236Z,18.90
2019-05-10T10:51:31.463Z,19.10
2019-05-10T10:53:58.029Z,19.20
2019-05-10T10:56:27.664Z,19.40
2019-05-10T10:58:58.075Z,19.70
2019-05-10T11:01:38.092Z,20.00
2019-05-10T11:04:03.456Z,20.10
2019-05-10T11:06:28.694Z,20.30
2019-05-10T11:08:57.577Z,20.80
2019-05-10T11:11:30.833Z,21.00
2019-05-10T11:14:00.481Z,21.20
2019-05-10T11:16:27.885Z,21.20
2019-05-10T11:18:56.765Z,21.00
2019-05-10T11:21:28.809Z,20.80
2019-05-10T11:23:56.170Z,20.20
2019-05-10T11:26:26.672Z,19.80
2019-05-10T11:28:55.573Z,19.20
2019-05-10T11:31:24.395Z,18.60
2019-05-10T11:33:58.336Z,18.10
2019-05-10T11:36:24.194Z,17.90
2019-05-10T11:38:58.437Z,17.80
2019-05-10T11:41:24.757Z,17.80
2019-05-10T11:44:03.783Z,17.70
2019-05-10T11:46:27.716Z,17.70
2019-05-10T11:48:54.896Z,17.70
2019-05-10T11:51:23.802Z,17.70
2019-05-10T11:53:55.444Z,17.90
2019-05-10T11:56:27.361Z,17.90
2019-05-10T11:58:55.537Z,18.00
2019-05-10T12:01:24.673Z,18.20
2019-05-10T12:03:53.489Z,18.50
2019-05-10T12:06:22.456Z,19.10
2019-05-10T12:08:56.833Z,19.50
2019-05-10T12:11:32.881Z,19.70
2019-05-10T12:13:57.212Z,20.00
2019-05-10T12:16:23.131Z,20.10
2019-05-10T12:19:16.918Z,20.20
2019-05-10T12:21:22.536Z,19.90
2019-05-10T12:23:55.984Z,19.50
2019-05-10T12:28:53.049Z,18.50
2019-05-10T12:31:23.429Z,18.10
2019-05-10T12:33:52.879Z,17.70
2019-05-10T12:36:27.161Z,17.50
2019-05-10T12:38:52.545Z,17.40
2019-05-10T12:41:23.465Z,17.30
2019-05-10T12:44:02.884Z,17.40
2019-05-10T12:46:22.880Z,17.50
2019-05-10T12:48:51.818Z,17.40
2019-05-10T12:51:21.236Z,17.50
2019-05-10T12:53:52.066Z,17.60
2019-05-10T12:56:20.926Z,17.70
2019-05-10T12:58:56.235Z,17.70
2019-05-10T13:01:25.494Z,17.70
2019-05-10T13:03:51.273Z,17.70
2019-05-10T13:06:20.163Z,18.10
2019-05-10T13:08:49.227Z,18.50
2019-05-10T13:11:18.825Z,19.10
2019-05-10T13:13:48.647Z,19.70
2019-05-10T13:16:17.628Z,20.40
2019-05-10T13:18:52.021Z,20.90
2019-05-10T13:21:20.921Z,20.90
2019-05-10T13:23:53.337Z,21.10
2019-05-10T13:26:19.229Z,21.30
2019-05-10T13:28:48.082Z,21.50
2019-05-10T13:31:17.043Z,21.40
2019-05-10T13:33:45.849Z,21.30
2019-05-10T13:36:14.972Z,21.70
2019-05-10T13:38:48.563Z,22.60
2019-05-10T13:41:17.980Z,23.50
2019-05-10T13:43:45.247Z,24.40
2019-05-10T13:46:14.042Z,25.40
2019-05-10T13:48:42.845Z,24.90
2019-05-10T13:51:11.684Z,24.30
2019-05-10T13:53:40.648Z,23.50
2019-05-10T13:56:09.538Z,22.90
2019-05-10T13:58:38.405Z,22.60
2019-05-10T14:01:13.071Z,23.20
2019-05-10T14:03:44.461Z,24.20
2019-05-10T14:06:09.538Z,24.40
2019-05-10T14:08:43.002Z,23.80
2019-05-10T14:11:09.117Z,23.50
2019-05-10T14:13:41.631Z,22.90
2019-05-10T14:16:08.521Z,22.40
2019-05-10T14:18:37.672Z,22.50
2019-05-10T14:21:07.241Z,23.60
2019-05-10T14:23:37.343Z,24.20
2019-05-10T14:26:09.314Z,23.90
2019-05-10T14:28:37.009Z,23.00
2019-05-10T14:31:06.179Z,21.80
2019-05-10T14:33:35.069Z,21.10
2019-05-10T14:36:03.941Z,20.30
2019-05-10T14:38:33.084Z,19.90
2019-05-10T14:41:04.271Z,19.90
2019-05-10T14:43:32.661Z,20.20
2019-05-10T14:46:01.474Z,20.40
2019-05-10T14:48:30.790Z,20.50
2019-05-10T14:51:03.139Z,20.40
2019-05-10T14:53:31.392Z,20.30
2019-05-10T14:56:00.790Z,20.40
2019-05-10T14:58:30.480Z,20.70
2019-05-10T15:00:59.416Z,21.10
2019-05-10T15:03:28.299Z,21.70
2019-05-10T15:06:01.385Z,22.80
2019-05-10T15:08:28.059Z,23.60
2019-05-10T15:10:57.435Z,23.80
2019-05-10T15:13:28.348Z,23.80
2019-05-10T15:15:56.824Z,23.40
2019-05-10T15:18:25.702Z,23.50
2019-05-10T15:20:54.584Z,23.60
2019-05-10T15:23:23.672Z,23.20
2019-05-10T15:25:57.383Z,22.90
2019-05-10T15:28:23.211Z,22.50
2019-05-10T15:30:52.873Z,21.90
2019-05-10T15:33:21.869Z,21.60
2019-05-10T15:35:52.331Z,21.10
2019-05-10T15:38:21.719Z,20.90
2019-05-10T15:40:50.607Z,21.00
2019-05-10T15:43:19.421Z,21.20
2019-05-10T15:45:52.671Z,21.10
2019-05-10T15:48:18.933Z,21.00
2019-05-10T15:50:48.093Z,20.70
2019-05-10T15:53:19.533Z,20.30
2019-05-10T15:55:47.677Z,20.00
2019-05-10T15:58:16.771Z,19.80
2019-05-10T16:00:45.579Z,19.60
2019-05-10T16:03:14.373Z,19.40
2019-05-10T16:05:44.166Z,19.30
2019-05-10T16:08:13.833Z,19.10
2019-05-10T16:10:42.789Z,18.90
2019-05-10T16:13:17.643Z,18.70
2019-05-10T16:15:42.424Z,18.50
2019-05-10T16:18:11.366Z,18.40
2019-05-10T16:20:40.214Z,18.40
2019-05-10T16:23:11.162Z,18.50
2019-05-10T16:25:47.562Z,18.60
2019-05-10T16:28:10.403Z,18.80
2019-05-10T16:30:39.362Z,19.10
2019-05-10T16:33:09.895Z,19.70
2019-05-10T16:35:39.310Z,20.40
2019-05-10T16:38:09.031Z,20.70
2019-05-10T16:40:38.015Z,20.70
2019-05-10T16:43:13.968Z,20.30
2019-05-10T16:45:37.673Z,19.80
2019-05-10T16:48:06.677Z,19.30
2019-05-10T16:50:36.065Z,18.90
2019-05-10T16:53:05.742Z,18.60
2019-05-10T16:55:40.385Z,18.50
2019-05-10T16:58:09.463Z,18.30
2019-05-10T17:00:40.665Z,18.20
2019-05-10T17:03:07.792Z,18.10
2019-05-10T17:05:36.592Z,18.20
2019-05-10T17:08:05.691Z,18.30
2019-05-10T17:10:34.748Z,18.40
2019-05-10T17:13:05.045Z,18.50
2019-05-10T17:15:39.946Z,18.40
2019-05-10T17:18:10.510Z,18.30
2019-05-10T17:20:35.923Z,18.10
2019-05-10T17:23:09.069Z,18.00
2019-05-10T17:25:35.667Z,17.90
2019-05-10T17:28:06.041Z,17.90
2019-05-10T17:30:34.932Z,17.80
2019-05-10T17:33:06.030Z,17.70
2019-05-10T17:35:36.601Z,17.70
2019-05-10T17:38:07.841Z,17.60
2019-05-10T17:40:36.488Z,17.50
2019-05-10T17:43:05.291Z,17.40
2019-05-10T17:45:34.982Z,17.20
2019-05-10T17:48:08.590Z,17.00
2019-05-10T17:50:35.546Z,16.80
2019-05-10T17:53:04.438Z,16.50
2019-05-10T17:55:33.225Z,16.40
2019-05-10T17:58:02.033Z,16.20
2019-05-10T18:00:30.881Z,16.00
2019-05-10T18:02:59.766Z,15.70
2019-05-10T18:05:28.560Z,15.40
2019-05-10T18:07:57.565Z,15.10
2019-05-10T18:10:26.513Z,14.90
2019-05-10T18:12:57.575Z,14.60
2019-05-10T18:15:27.727Z,14.40
2019-05-10T18:17:57.527Z,14.20
2019-05-10T18:20:27.516Z,14.00
2019-05-10T18:22:56.452Z,13.80
2019-05-10T18:25:25.280Z,13.70
2019-05-10T18:27:54.322Z,13.60
2019-05-10T18:30:23.355Z,13.50
2019-05-10T18:32:52.489Z,13.40
2019-05-10T18:35:21.273Z,13.10
2019-05-10T18:37:53.577Z,13.00
2019-05-10T18:40:25.139Z,12.80
2019-05-10T18:42:51.361Z,12.60
2019-05-10T18:45:23.401Z,12.50
2019-05-10T18:47:50.928Z,12.40
2019-05-10T18:50:20.231Z,12.20
2019-05-10T18:52:49.288Z,12.10
2019-05-10T18:55:18.290Z,12.10
2019-05-10T18:57:50.762Z,12.00
2019-05-10T19:00:23.076Z,12.00
2019-05-10T19:02:49.795Z,12.00
2019-05-10T19:05:24.856Z,11.90
2019-05-10T19:08:02.571Z,11.90
2019-05-10T19:10:21.001Z,11.80
2019-05-10T19:13:00.093Z,11.70
2019-05-10T19:15:20.846Z,11.60
2019-05-10T19:17:49.827Z,11.50
2019-05-10T19:20:18.741Z,11.40
2019-05-10T19:22:47.544Z,11.40
2019-05-10T19:25:16.421Z,11.30
2019-05-10T19:27:50.629Z,11.30
2019-05-10T19:30:19.941Z,11.20
2019-05-10T19:32:50.990Z,11.20
2019-05-10T19:35:17.772Z,11.00
2019-05-10T19:37:46.678Z,10.90
2019-05-10T19:40:15.813Z,10.90
2019-05-10T19:42:45.015Z,10.90
2019-05-10T19:45:19.106Z,10.80
2019-05-10T19:47:44.753Z,10.80
2019-05-10T19:50:15.818Z,10.80
2019-05-10T19:52:44.710Z,10.70
2019-05-10T19:55:19.382Z,10.60
2019-05-10T19:57:49.439Z,10.60
2019-05-10T20:00:15.822Z,10.50
2019-05-10T20:02:44.705Z,10.40
2019-05-10T20:05:14.445Z,10.50
2019-05-10T20:07:46.207Z,10.50
2019-05-10T20:10:14.809Z,10.50
2019-05-10T20:12:43.612Z,10.50
2019-05-10T20:15:13.059Z,10.50
2019-05-10T20:17:42.169Z,10.50
2019-05-10T20:20:11.211Z,10.50
2019-05-10T20:22:40.071Z,10.50
2019-05-10T20:25:09.542Z,10.50
2019-05-10T20:27:38.485Z,10.40
2019-05-10T20:30:07.765Z,10.40
2019-05-10T20:32:36.627Z,10.50
2019-05-10T20:35:05.933Z,10.50
2019-05-10T20:37:34.842Z,10.40
2019-05-10T20:40:03.896Z,10.50
2019-05-10T20:42:32.687Z,10.50
2019-05-10T20:45:07.393Z,10.60
2019-05-10T20:47:32.229Z,10.60
2019-05-10T20:50:01.235Z,10.60
2019-05-10T20:52:30.412Z,10.60
2019-05-10T20:54:59.316Z,10.70
2019-05-10T20:57:28.398Z,10.70
2019-05-10T20:59:57.383Z,10.70
2019-05-10T21:02:26.226Z,10.70
2019-05-10T21:04:55.128Z,10.70
2019-05-10T21:07:23.936Z,10.70
2019-05-10T21:09:52.893Z,10.70
2019-05-10T21:12:22.329Z,10.70
2019-05-10T21:14:51.266Z,10.80
2019-05-10T21:17:20.223Z,10.80
2019-05-10T21:19:49.087Z,10.80
2019-05-10T21:22:17.977Z,10.70
2019-05-10T21:24:46.838Z,10.70
2019-05-10T21:27:15.729Z,10.60
2019-05-10T21:29:44.536Z,10.60
2019-05-10T21:32:13.495Z,10.60
2019-05-10T21:34:42.365Z,10.70
2019-05-10T21:37:11.175Z,10.70
2019-05-10T21:39:40.035Z,10.80
2019-05-10T21:42:08.894Z,10.80
2019-05-10T21:44:37.733Z,10.80
2019-05-10T21:47:06.858Z,10.70
2019-05-10T21:49:35.749Z,10.70
2019-05-10T21:52:04.555Z,10.70
2019-05-10T21:54:33.513Z,10.70
2019-05-10T21:57:02.348Z,10.70
2019-05-10T21:59:31.541Z,10.80
2019-05-10T22:02:00.434Z,10.80
2019-05-10T22:04:29.338Z,10.80
2019-05-10T22:06:58.263Z,10.80
2019-05-10T22:09:27.503Z,10.80
2019-05-10T22:11:59.328Z,10.80
2019-05-10T22:14:26.914Z,10.80
2019-05-10T22:16:55.820Z,10.80
2019-05-10T22:19:24.741Z,10.80
2019-05-10T22:21:55.496Z,10.80
2019-05-10T22:24:24.297Z,10.70
2019-05-10T22:26:53.129Z,10.70
2019-05-10T22:29:22.032Z,10.70
2019-05-10T22:31:51.511Z,10.70
2019-05-10T22:34:20.341Z,10.70
2019-05-10T22:36:49.544Z,10.60
2019-05-10T22:39:18.396Z,10.60
2019-05-10T22:41:47.318Z,10.60
2019-05-10T22:44:16.184Z,10.60
2019-05-10T22:46:45.089Z,10.50
2019-05-10T22:49:13.968Z,10.50
2019-05-10T22:51:42.809Z,10.50
2019-05-10T22:54:12.137Z,10.60
2019-05-10T22:56:41.367Z,10.60
2019-05-10T22:59:10.264Z,10.50
2019-05-10T23:01:39.519Z,10.50
2019-05-10T23:04:08.589Z,10.50
2019-05-10T23:06:37.457Z,10.40
2019-05-10T23:09:23.406Z,10.40
2019-05-10T23:11:38.543Z,10.40
2019-05-10T23:14:08.074Z,10.50
2019-05-10T23:16:37.039Z,10.50
2019-05-10T23:19:05.867Z,10.50
2019-05-10T23:21:35.257Z,10.60
2019-05-10T23:24:07.199Z,10.60
2019-05-10T23:26:36.289Z,10.60
2019-05-10T23:29:05.290Z,10.60
2019-05-10T23:31:35.552Z,10.70
2019-05-10T23:34:04.721Z,10.70
2019-05-10T23:36:33.542Z,10.70
2019-05-10T23:39:02.370Z,10.70
2019-05-10T23:41:31.222Z,10.70
2019-05-10T23:44:00.091Z,10.70
2019-05-10T23:46:29.180Z,10.70
2019-05-10T23:48:58.082Z,10.80
2019-05-10T23:51:26.924Z,10.70
2019-05-10T23:53:55.759Z,10.70
2019-05-10T23:56:25.108Z,10.70
2019-05-10T23:58:54.201Z,10.70
